sensor_id;sensor_type;location;lat;lon;timestamp;P1;durP1;ratioP1;P2;durP2;ratioP2
26562;SDS011;14217;50.986;5.826;2023-07-09T00:03:09;2.00;;;1.70;;
26562;SDS011;14217;50.986;5.826;2023-07-09T00:08:26;1.98;;;1.63;;
26562;SDS011;14217;50.986;5.826;2023-07-09T00:13:30;3.75;;;2.00;;
26562;SDS011;14217;50.986;5.826;2023-07-09T00:18:32;2.30;;;1.50;;
26562;SDS011;14217;50.986;5.826;2023-07-09T00:23:34;2.33;;;1.90;;
26562;SDS011;14217;50.986;5.826;2023-07-09T00:28:35;3.50;;;1.70;;
26562;SDS011;14217;50.986;5.826;2023-07-09T00:33:37;2.35;;;1.55;;
26562;SDS011;14217;50.986;5.826;2023-07-09T00:38:40;1.38;;;1.27;;
26562;SDS011;14217;50.986;5.826;2023-07-09T00:43:42;1.90;;;1.70;;
26562;SDS011;14217;50.986;5.826;2023-07-09T00:48:45;1.73;;;1.42;;
26562;SDS011;14217;50.986;5.826;2023-07-09T00:53:50;2.63;;;2.08;;
26562;SDS011;14217;50.986;5.826;2023-07-09T00:58:55;1.65;;;1.50;;
26562;SDS011;14217;50.986;5.826;2023-07-09T01:03:59;1.63;;;1.30;;
26562;SDS011;14217;50.986;5.826;2023-07-09T01:09:05;2.25;;;1.50;;
26562;SDS011;14217;50.986;5.826;2023-07-09T01:14:09;1.48;;;1.17;;
26562;SDS011;14217;50.986;5.826;2023-07-09T01:19:14;2.85;;;1.75;;
26562;SDS011;14217;50.986;5.826;2023-07-09T01:29:47;1.63;;;1.52;;
26562;SDS011;14217;50.986;5.826;2023-07-09T01:34:55;1.60;;;1.50;;
26562;SDS011;14217;50.986;5.826;2023-07-09T01:39:59;4.63;;;1.33;;
26562;SDS011;14217;50.986;5.826;2023-07-09T01:45:01;1.58;;;1.35;;
26562;SDS011;14217;50.986;5.826;2023-07-09T01:50:06;1.83;;;1.38;;
26562;SDS011;14217;50.986;5.826;2023-07-09T01:55:09;1.33;;;1.23;;
26562;SDS011;14217;50.986;5.826;2023-07-09T02:00:14;1.52;;;1.33;;
26562;SDS011;14217;50.986;5.826;2023-07-09T02:05:18;1.30;;;1.20;;
26562;SDS011;14217;50.986;5.826;2023-07-09T02:10:21;1.42;;;1.30;;
26562;SDS011;14217;50.986;5.826;2023-07-09T02:15:23;1.50;;;1.02;;
26562;SDS011;14217;50.986;5.826;2023-07-09T02:20:24;1.48;;;1.17;;
26562;SDS011;14217;50.986;5.826;2023-07-09T02:25:27;1.73;;;1.50;;
26562;SDS011;14217;50.986;5.826;2023-07-09T02:30:29;1.35;;;1.20;;
26562;SDS011;14217;50.986;5.826;2023-07-09T02:35:31;2.47;;;1.17;;
26562;SDS011;14217;50.986;5.826;2023-07-09T02:40:33;1.27;;;1.17;;
26562;SDS011;14217;50.986;5.826;2023-07-09T02:45:35;1.42;;;1.13;;
26562;SDS011;14217;50.986;5.826;2023-07-09T02:50:37;1.52;;;1.40;;
26562;SDS011;14217;50.986;5.826;2023-07-09T02:55:39;1.48;;;1.13;;
26562;SDS011;14217;50.986;5.826;2023-07-09T03:00:41;2.20;;;1.13;;
26562;SDS011;14217;50.986;5.826;2023-07-09T03:05:44;1.10;;;1.00;;
26562;SDS011;14217;50.986;5.826;2023-07-09T03:10:47;2.13;;;1.35;;
26562;SDS011;14217;50.986;5.826;2023-07-09T03:15:55;0.98;;;0.90;;
26562;SDS011;14217;50.986;5.826;2023-07-09T03:20:58;1.35;;;1.25;;
26562;SDS011;14217;50.986;5.826;2023-07-09T03:26:00;1.20;;;1.00;;
26562;SDS011;14217;50.986;5.826;2023-07-09T03:31:02;2.33;;;1.27;;
26562;SDS011;14217;50.986;5.826;2023-07-09T03:36:04;1.98;;;1.27;;
26562;SDS011;14217;50.986;5.826;2023-07-09T03:41:07;1.20;;;1.10;;
26562;SDS011;14217;50.986;5.826;2023-07-09T03:46:09;1.10;;;1.00;;
26562;SDS011;14217;50.986;5.826;2023-07-09T03:51:11;1.15;;;1.02;;
26562;SDS011;14217;50.986;5.826;2023-07-09T03:56:13;1.30;;;1.10;;
26562;SDS011;14217;50.986;5.826;2023-07-09T04:01:15;1.75;;;1.10;;
26562;SDS011;14217;50.986;5.826;2023-07-09T04:06:18;2.05;;;1.02;;
26562;SDS011;14217;50.986;5.826;2023-07-09T04:11:20;1.27;;;1.05;;
26562;SDS011;14217;50.986;5.826;2023-07-09T04:16:22;1.02;;;0.98;;
26562;SDS011;14217;50.986;5.826;2023-07-09T04:21:24;1.67;;;1.20;;
26562;SDS011;14217;50.986;5.826;2023-07-09T04:26:26;1.10;;;0.95;;
26562;SDS011;14217;50.986;5.826;2023-07-09T04:31:29;1.38;;;1.27;;
26562;SDS011;14217;50.986;5.826;2023-07-09T04:36:31;1.23;;;1.13;;
26562;SDS011;14217;50.986;5.826;2023-07-09T04:41:32;1.30;;;1.08;;
26562;SDS011;14217;50.986;5.826;2023-07-09T04:46:35;1.85;;;1.40;;
26562;SDS011;14217;50.986;5.826;2023-07-09T04:51:37;0.85;;;0.85;;
26562;SDS011;14217;50.986;5.826;2023-07-09T04:56:39;1.38;;;1.10;;
26562;SDS011;14217;50.986;5.826;2023-07-09T05:01:41;1.85;;;1.50;;
26562;SDS011;14217;50.986;5.826;2023-07-09T05:06:43;1.20;;;1.10;;
26562;SDS011;14217;50.986;5.826;2023-07-09T05:11:45;1.27;;;0.90;;
26562;SDS011;14217;50.986;5.826;2023-07-09T05:16:47;0.95;;;0.93;;
26562;SDS011;14217;50.986;5.826;2023-07-09T05:21:49;1.13;;;0.90;;
26562;SDS011;14217;50.986;5.826;2023-07-09T05:26:51;1.20;;;1.00;;
26562;SDS011;14217;50.986;5.826;2023-07-09T05:31:53;2.33;;;1.23;;
26562;SDS011;14217;50.986;5.826;2023-07-09T05:36:55;1.00;;;0.85;;
26562;SDS011;14217;50.986;5.826;2023-07-09T05:42:00;1.08;;;0.98;;
26562;SDS011;14217;50.986;5.826;2023-07-09T05:47:02;1.10;;;0.95;;
26562;SDS011;14217;50.986;5.826;2023-07-09T05:52:04;1.15;;;1.02;;
26562;SDS011;14217;50.986;5.826;2023-07-09T05:57:07;1.30;;;1.20;;
26562;SDS011;14217;50.986;5.826;2023-07-09T06:02:16;1.50;;;1.40;;
26562;SDS011;14217;50.986;5.826;2023-07-09T06:07:21;1.35;;;0.95;;
26562;SDS011;14217;50.986;5.826;2023-07-09T06:12:23;1.27;;;0.95;;
26562;SDS011;14217;50.986;5.826;2023-07-09T06:17:25;1.25;;;1.15;;
26562;SDS011;14217;50.986;5.826;2023-07-09T06:22:27;1.20;;;1.00;;
26562;SDS011;14217;50.986;5.826;2023-07-09T06:27:29;0.70;;;0.65;;
26562;SDS011;14217;50.986;5.826;2023-07-09T06:32:31;0.93;;;0.93;;
26562;SDS011;14217;50.986;5.826;2023-07-09T06:37:33;1.45;;;1.02;;
26562;SDS011;14217;50.986;5.826;2023-07-09T06:42:35;1.20;;;1.10;;
26562;SDS011;14217;50.986;5.826;2023-07-09T06:47:37;1.45;;;1.10;;
26562;SDS011;14217;50.986;5.826;2023-07-09T06:52:39;0.93;;;0.93;;
26562;SDS011;14217;50.986;5.826;2023-07-09T06:57:42;1.67;;;1.27;;
26562;SDS011;14217;50.986;5.826;2023-07-09T07:02:43;1.65;;;0.93;;
26562;SDS011;14217;50.986;5.826;2023-07-09T07:07:46;1.05;;;0.80;;
26562;SDS011;14217;50.986;5.826;2023-07-09T07:12:48;1.65;;;1.30;;
26562;SDS011;14217;50.986;5.826;2023-07-09T07:17:50;1.67;;;1.00;;
26562;SDS011;14217;50.986;5.826;2023-07-09T07:22:52;0.73;;;0.73;;
26562;SDS011;14217;50.986;5.826;2023-07-09T07:27:54;1.20;;;1.02;;
26562;SDS011;14217;50.986;5.826;2023-07-09T07:32:56;2.70;;;1.58;;
26562;SDS011;14217;50.986;5.826;2023-07-09T07:37:58;3.17;;;1.30;;
26562;SDS011;14217;50.986;5.826;2023-07-09T07:43:00;2.15;;;1.55;;
26562;SDS011;14217;50.986;5.826;2023-07-09T07:48:02;2.53;;;1.58;;
26562;SDS011;14217;50.986;5.826;2023-07-09T07:53:04;1.30;;;1.20;;
26562;SDS011;14217;50.986;5.826;2023-07-09T07:58:11;3.95;;;1.08;;
26562;SDS011;14217;50.986;5.826;2023-07-09T08:03:14;3.80;;;1.25;;
26562;SDS011;14217;50.986;5.826;2023-07-09T08:08:16;1.45;;;1.20;;
26562;SDS011;14217;50.986;5.826;2023-07-09T08:13:18;7.40;;;1.80;;
26562;SDS011;14217;50.986;5.826;2023-07-09T08:18:20;5.78;;;2.33;;
26562;SDS011;14217;50.986;5.826;2023-07-09T08:23:23;9.95;;;2.90;;
26562;SDS011;14217;50.986;5.826;2023-07-09T08:28:25;7.95;;;2.15;;
26562;SDS011;14217;50.986;5.826;2023-07-09T08:33:27;11.43;;;3.63;;
26562;SDS011;14217;50.986;5.826;2023-07-09T08:38:29;8.98;;;3.22;;
26562;SDS011;14217;50.986;5.826;2023-07-09T08:48:42;8.77;;;2.63;;
26562;SDS011;14217;50.986;5.826;2023-07-09T08:59:02;17.05;;;1.92;;
26562;SDS011;14217;50.986;5.826;2023-07-09T09:04:13;5.63;;;2.80;;
26562;SDS011;14217;50.986;5.826;2023-07-09T09:09:31;3.22;;;2.15;;
26562;SDS011;14217;50.986;5.826;2023-07-09T09:14:41;3.55;;;1.90;;
26562;SDS011;14217;50.986;5.826;2023-07-09T09:30:21;8.00;;;2.33;;
26562;SDS011;14217;50.986;5.826;2023-07-09T09:35:30;2.60;;;1.85;;
26562;SDS011;14217;50.986;5.826;2023-07-09T09:40:35;3.30;;;1.75;;
26562;SDS011;14217;50.986;5.826;2023-07-09T09:45:38;4.75;;;2.45;;
26562;SDS011;14217;50.986;5.826;2023-07-09T09:50:41;3.88;;;2.40;;
26562;SDS011;14217;50.986;5.826;2023-07-09T09:55:44;5.10;;;1.48;;
26562;SDS011;14217;50.986;5.826;2023-07-09T10:00:55;4.10;;;1.70;;
26562;SDS011;14217;50.986;5.826;2023-07-09T10:05:59;3.72;;;2.03;;
26562;SDS011;14217;50.986;5.826;2023-07-09T10:11:12;11.02;;;1.90;;
26562;SDS011;14217;50.986;5.826;2023-07-09T10:16:34;3.15;;;1.70;;
26562;SDS011;14217;50.986;5.826;2023-07-09T10:21:46;2.85;;;2.05;;
26562;SDS011;14217;50.986;5.826;2023-07-09T10:27:01;7.38;;;2.00;;
26562;SDS011;14217;50.986;5.826;2023-07-09T10:32:14;6.28;;;2.00;;
26562;SDS011;14217;50.986;5.826;2023-07-09T10:37:29;8.25;;;2.13;;
26562;SDS011;14217;50.986;5.826;2023-07-09T10:42:48;3.72;;;1.90;;
26562;SDS011;14217;50.986;5.826;2023-07-09T10:47:57;11.85;;;2.10;;
26562;SDS011;14217;50.986;5.826;2023-07-09T10:53:13;5.47;;;1.75;;
26562;SDS011;14217;50.986;5.826;2023-07-09T11:09:01;2.50;;;1.60;;
26562;SDS011;14217;50.986;5.826;2023-07-09T11:14:09;11.35;;;2.60;;
26562;SDS011;14217;50.986;5.826;2023-07-09T11:19:25;2.65;;;1.92;;
26562;SDS011;14217;50.986;5.826;2023-07-09T11:24:34;3.85;;;1.65;;
26562;SDS011;14217;50.986;5.826;2023-07-09T11:30:03;2.90;;;1.55;;
26562;SDS011;14217;50.986;5.826;2023-07-09T11:35:21;10.30;;;1.58;;
26562;SDS011;14217;50.986;5.826;2023-07-09T11:40:25;13.23;;;1.83;;
26562;SDS011;14217;50.986;5.826;2023-07-09T11:45:31;3.85;;;2.17;;
26562;SDS011;14217;50.986;5.826;2023-07-09T11:50:35;6.15;;;2.45;;
26562;SDS011;14217;50.986;5.826;2023-07-09T11:55:46;4.13;;;2.33;;
26562;SDS011;14217;50.986;5.826;2023-07-09T12:00:49;3.45;;;2.05;;
26562;SDS011;14217;50.986;5.826;2023-07-09T12:05:56;8.93;;;2.40;;
26562;SDS011;14217;50.986;5.826;2023-07-09T12:11:01;5.15;;;1.90;;
26562;SDS011;14217;50.986;5.826;2023-07-09T12:16:04;4.65;;;1.95;;
26562;SDS011;14217;50.986;5.826;2023-07-09T12:21:20;6.50;;;2.33;;
26562;SDS011;14217;50.986;5.826;2023-07-09T12:26:23;9.23;;;2.30;;
26562;SDS011;14217;50.986;5.826;2023-07-09T12:31:29;5.47;;;2.03;;
26562;SDS011;14217;50.986;5.826;2023-07-09T12:36:32;5.90;;;2.10;;
26562;SDS011;14217;50.986;5.826;2023-07-09T12:41:40;7.28;;;2.13;;
26562;SDS011;14217;50.986;5.826;2023-07-09T12:46:44;14.23;;;2.00;;
26562;SDS011;14217;50.986;5.826;2023-07-09T12:51:48;6.60;;;1.85;;
26562;SDS011;14217;50.986;5.826;2023-07-09T12:56:51;3.08;;;1.60;;
26562;SDS011;14217;50.986;5.826;2023-07-09T13:01:55;3.33;;;1.67;;
26562;SDS011;14217;50.986;5.826;2023-07-09T13:12:30;2.97;;;1.60;;
26562;SDS011;14217;50.986;5.826;2023-07-09T13:17:33;7.30;;;2.08;;
26562;SDS011;14217;50.986;5.826;2023-07-09T13:22:35;5.07;;;1.80;;
26562;SDS011;14217;50.986;5.826;2023-07-09T13:27:37;5.30;;;2.13;;
26562;SDS011;14217;50.986;5.826;2023-07-09T13:32:39;3.47;;;1.52;;
26562;SDS011;14217;50.986;5.826;2023-07-09T13:37:42;2.47;;;1.42;;
26562;SDS011;14217;50.986;5.826;2023-07-09T13:42:46;2.90;;;1.65;;
26562;SDS011;14217;50.986;5.826;2023-07-09T13:47:50;3.72;;;1.65;;
26562;SDS011;14217;50.986;5.826;2023-07-09T13:52:53;3.33;;;1.83;;
26562;SDS011;14217;50.986;5.826;2023-07-09T13:57:55;3.95;;;2.03;;
26562;SDS011;14217;50.986;5.826;2023-07-09T14:02:57;12.27;;;8.40;;
26562;SDS011;14217;50.986;5.826;2023-07-09T14:07:59;8.85;;;8.05;;
26562;SDS011;14217;50.986;5.826;2023-07-09T14:13:02;9.63;;;8.73;;
26562;SDS011;14217;50.986;5.826;2023-07-09T14:18:05;9.35;;;8.20;;
26562;SDS011;14217;50.986;5.826;2023-07-09T14:23:12;9.30;;;8.45;;
26562;SDS011;14217;50.986;5.826;2023-07-09T14:28:16;7.13;;;6.55;;
26562;SDS011;14217;50.986;5.826;2023-07-09T14:33:21;7.03;;;5.38;;
26562;SDS011;14217;50.986;5.826;2023-07-09T14:38:24;5.75;;;5.35;;
26562;SDS011;14217;50.986;5.826;2023-07-09T14:43:27;4.35;;;3.70;;
26562;SDS011;14217;50.986;5.826;2023-07-09T14:48:29;6.38;;;3.15;;
26562;SDS011;14217;50.986;5.826;2023-07-09T14:53:31;8.18;;;3.53;;
26562;SDS011;14217;50.986;5.826;2023-07-09T14:58:33;4.93;;;4.00;;
26562;SDS011;14217;50.986;5.826;2023-07-09T15:03:35;3.60;;;2.80;;
26562;SDS011;14217;50.986;5.826;2023-07-09T15:08:37;4.30;;;3.70;;
26562;SDS011;14217;50.986;5.826;2023-07-09T15:13:39;4.70;;;3.35;;
26562;SDS011;14217;50.986;5.826;2023-07-09T15:18:42;10.07;;;5.70;;
26562;SDS011;14217;50.986;5.826;2023-07-09T15:23:44;8.25;;;6.68;;
26562;SDS011;14217;50.986;5.826;2023-07-09T15:28:46;9.50;;;6.43;;
26562;SDS011;14217;50.986;5.826;2023-07-09T15:33:51;6.65;;;5.82;;
26562;SDS011;14217;50.986;5.826;2023-07-09T15:38:53;5.82;;;5.28;;
26562;SDS011;14217;50.986;5.826;2023-07-09T15:43:55;5.47;;;4.50;;
26562;SDS011;14217;50.986;5.826;2023-07-09T15:48:57;8.07;;;7.22;;
26562;SDS011;14217;50.986;5.826;2023-07-09T15:53:59;7.65;;;6.75;;
26562;SDS011;14217;50.986;5.826;2023-07-09T15:59:01;10.05;;;9.18;;
26562;SDS011;14217;50.986;5.826;2023-07-09T16:04:07;10.32;;;6.78;;
26562;SDS011;14217;50.986;5.826;2023-07-09T16:09:11;7.22;;;6.53;;
26562;SDS011;14217;50.986;5.826;2023-07-09T16:19:28;6.85;;;6.15;;
26562;SDS011;14217;50.986;5.826;2023-07-09T16:24:32;9.02;;;5.72;;
26562;SDS011;14217;50.986;5.826;2023-07-09T16:29:37;6.97;;;4.93;;
26562;SDS011;14217;50.986;5.826;2023-07-09T16:34:39;5.05;;;3.60;;
26562;SDS011;14217;50.986;5.826;2023-07-09T16:39:42;4.80;;;2.83;;
26562;SDS011;14217;50.986;5.826;2023-07-09T16:44:45;6.10;;;3.65;;
26562;SDS011;14217;50.986;5.826;2023-07-09T16:49:47;3.75;;;3.38;;
26562;SDS011;14217;50.986;5.826;2023-07-09T16:54:49;3.72;;;3.03;;
26562;SDS011;14217;50.986;5.826;2023-07-09T16:59:52;3.65;;;3.13;;
26562;SDS011;14217;50.986;5.826;2023-07-09T17:04:57;3.17;;;2.78;;
26562;SDS011;14217;50.986;5.826;2023-07-09T17:10:06;2.92;;;2.60;;
26562;SDS011;14217;50.986;5.826;2023-07-09T17:15:25;3.60;;;2.70;;
26562;SDS011;14217;50.986;5.826;2023-07-09T17:20:30;9.75;;;4.00;;
26562;SDS011;14217;50.986;5.826;2023-07-09T17:25:33;3.80;;;3.38;;
26562;SDS011;14217;50.986;5.826;2023-07-09T17:30:37;5.57;;;3.13;;
26562;SDS011;14217;50.986;5.826;2023-07-09T17:35:40;3.55;;;3.28;;
26562;SDS011;14217;50.986;5.826;2023-07-09T17:40:44;4.00;;;3.50;;
26562;SDS011;14217;50.986;5.826;2023-07-09T17:45:47;2.85;;;2.65;;
26562;SDS011;14217;50.986;5.826;2023-07-09T17:50:50;3.13;;;2.38;;
26562;SDS011;14217;50.986;5.826;2023-07-09T17:55:52;4.63;;;2.88;;
26562;SDS011;14217;50.986;5.826;2023-07-09T18:00:58;3.97;;;2.88;;
26562;SDS011;14217;50.986;5.826;2023-07-09T18:06:03;3.67;;;2.45;;
26562;SDS011;14217;50.986;5.826;2023-07-09T18:11:08;3.78;;;2.72;;
26562;SDS011;14217;50.986;5.826;2023-07-09T18:16:22;3.78;;;2.53;;
26562;SDS011;14217;50.986;5.826;2023-07-09T18:21:24;3.50;;;3.15;;
26562;SDS011;14217;50.986;5.826;2023-07-09T18:26:26;4.18;;;3.15;;
26562;SDS011;14217;50.986;5.826;2023-07-09T18:31:28;3.40;;;3.03;;
26562;SDS011;14217;50.986;5.826;2023-07-09T18:36:30;2.92;;;2.65;;
26562;SDS011;14217;50.986;5.826;2023-07-09T18:41:32;3.03;;;2.38;;
26562;SDS011;14217;50.986;5.826;2023-07-09T18:46:34;3.30;;;3.00;;
26562;SDS011;14217;50.986;5.826;2023-07-09T18:51:36;3.50;;;2.83;;
26562;SDS011;14217;50.986;5.826;2023-07-09T18:56:38;4.80;;;2.78;;
26562;SDS011;14217;50.986;5.826;2023-07-09T19:01:42;2.90;;;2.28;;
26562;SDS011;14217;50.986;5.826;2023-07-09T19:06:45;4.43;;;3.40;;
26562;SDS011;14217;50.986;5.826;2023-07-09T19:11:49;4.25;;;2.97;;
26562;SDS011;14217;50.986;5.826;2023-07-09T19:16:55;2.50;;;2.30;;
26562;SDS011;14217;50.986;5.826;2023-07-09T19:21:59;3.00;;;2.72;;
26562;SDS011;14217;50.986;5.826;2023-07-09T19:27:01;3.75;;;3.25;;
26562;SDS011;14217;50.986;5.826;2023-07-09T19:32:06;3.70;;;3.40;;
26562;SDS011;14217;50.986;5.826;2023-07-09T19:37:19;5.38;;;3.22;;
26562;SDS011;14217;50.986;5.826;2023-07-09T19:42:24;25.45;;;4.47;;
26562;SDS011;14217;50.986;5.826;2023-07-09T19:47:28;1.75;;;1.65;;
26562;SDS011;14217;50.986;5.826;2023-07-09T19:52:38;3.25;;;2.95;;
26562;SDS011;14217;50.986;5.826;2023-07-09T19:57:40;3.40;;;2.35;;
26562;SDS011;14217;50.986;5.826;2023-07-09T20:02:42;4.40;;;3.35;;
26562;SDS011;14217;50.986;5.826;2023-07-09T20:07:45;7.85;;;4.15;;
26562;SDS011;14217;50.986;5.826;2023-07-09T20:12:51;4.38;;;3.97;;
26562;SDS011;14217;50.986;5.826;2023-07-09T20:17:55;6.25;;;4.00;;
26562;SDS011;14217;50.986;5.826;2023-07-09T20:22:58;4.22;;;3.75;;
26562;SDS011;14217;50.986;5.826;2023-07-09T20:28:04;3.60;;;3.30;;
26562;SDS011;14217;50.986;5.826;2023-07-09T20:33:17;6.03;;;3.08;;
26562;SDS011;14217;50.986;5.826;2023-07-09T20:38:20;3.63;;;2.58;;
26562;SDS011;14217;50.986;5.826;2023-07-09T20:43:33;4.45;;;3.00;;
26562;SDS011;14217;50.986;5.826;2023-07-09T20:48:39;7.35;;;4.03;;
26562;SDS011;14217;50.986;5.826;2023-07-09T20:53:41;7.20;;;3.25;;
26562;SDS011;14217;50.986;5.826;2023-07-09T20:58:43;8.88;;;2.78;;
26562;SDS011;14217;50.986;5.826;2023-07-09T21:03:45;6.50;;;3.38;;
26562;SDS011;14217;50.986;5.826;2023-07-09T21:08:47;9.32;;;3.70;;
26562;SDS011;14217;50.986;5.826;2023-07-09T21:13:49;6.55;;;3.28;;
26562;SDS011;14217;50.986;5.826;2023-07-09T21:18:51;3.63;;;2.60;;
26562;SDS011;14217;50.986;5.826;2023-07-09T21:23:53;3.08;;;2.47;;
26562;SDS011;14217;50.986;5.826;2023-07-09T21:28:55;3.53;;;2.42;;
26562;SDS011;14217;50.986;5.826;2023-07-09T21:33:57;4.40;;;2.75;;
26562;SDS011;14217;50.986;5.826;2023-07-09T21:38:58;3.70;;;2.38;;
26562;SDS011;14217;50.986;5.826;2023-07-09T21:44:00;3.88;;;2.20;;
26562;SDS011;14217;50.986;5.826;2023-07-09T21:49:02;3.85;;;2.70;;
26562;SDS011;14217;50.986;5.826;2023-07-09T21:59:57;2.30;;;1.88;;
26562;SDS011;14217;50.986;5.826;2023-07-09T22:05:01;2.75;;;2.08;;
26562;SDS011;14217;50.986;5.826;2023-07-09T22:10:03;2.80;;;2.20;;
26562;SDS011;14217;50.986;5.826;2023-07-09T22:15:18;1.95;;;1.63;;
26562;SDS011;14217;50.986;5.826;2023-07-09T22:20:23;12.32;;;2.30;;
26562;SDS011;14217;50.986;5.826;2023-07-09T22:25:30;2.58;;;2.22;;
26562;SDS011;14217;50.986;5.826;2023-07-09T22:30:33;3.58;;;2.08;;
26562;SDS011;14217;50.986;5.826;2023-07-09T22:35:35;2.00;;;1.70;;
26562;SDS011;14217;50.986;5.826;2023-07-09T22:40:39;1.77;;;1.45;;
26562;SDS011;14217;50.986;5.826;2023-07-09T22:45:42;2.47;;;1.73;;
26562;SDS011;14217;50.986;5.826;2023-07-09T22:50:49;4.32;;;2.03;;
26562;SDS011;14217;50.986;5.826;2023-07-09T22:55:56;2.55;;;1.50;;
26562;SDS011;14217;50.986;5.826;2023-07-09T23:01:01;2.40;;;1.85;;
26562;SDS011;14217;50.986;5.826;2023-07-09T23:06:15;1.90;;;1.33;;
26562;SDS011;14217;50.986;5.826;2023-07-09T23:11:26;3.22;;;1.50;;
26562;SDS011;14217;50.986;5.826;2023-07-09T23:16:30;1.77;;;1.48;;
26562;SDS011;14217;50.986;5.826;2023-07-09T23:21:33;2.70;;;1.77;;
26562;SDS011;14217;50.986;5.826;2023-07-09T23:26:39;2.05;;;1.73;;
26562;SDS011;14217;50.986;5.826;2023-07-09T23:31:47;1.73;;;1.63;;
26562;SDS011;14217;50.986;5.826;2023-07-09T23:36:50;2.65;;;1.90;;
26562;SDS011;14217;50.986;5.826;2023-07-09T23:41:53;1.50;;;1.40;;
26562;SDS011;14217;50.986;5.826;2023-07-09T23:46:57;1.67;;;1.45;;
26562;SDS011;14217;50.986;5.826;2023-07-09T23:51:59;1.27;;;1.17;;
26562;SDS011;14217;50.986;5.826;2023-07-09T23:57:01;1.60;;;1.25;;
